Lahaska, Pennsylvania
Current Conditions -  °F | °C
As of 12:54 AM on Monday 26 Jan 2015 (Local Time) from KDYL Reporting Station
Light Snow Light Snow  
Wind Chill: 20°   Ceiling: 2200
Heat Index: 27°   Visibility: 4mi
Dew Point: 21°   Wind: 6mph
Humidity: 78%   Direction: 60°ENE
Pressure: 29.95"   Gusts: NA
Location:  40.35°N, 75.03°W
Report Text: KDYL 260554Z AUTO 06005KT 4SM -SN BKN022 OVC031 M03/M06 A2995 RMK AO2 SNB0458 SLP150 P0000 60000 T10281061 10011 21028 50006
Loading
Personal Weather Stations






























Interactive Weather Map New forecast layout! Learn more

10-Day Weather Forecast

Advertisements
Track Severe Weather on mobile